Time;durP1;ratioP1;P1;durP2;ratioP2;P2;SDS_P1;SDS_P2;PMS_P1;PMS_P2;Temp;Humidity;BMP_temperature;BMP_pressure;BME280_temperature;BME280_humidity;BME280_pressure;Samples;Min_cycle;Max_cycle;Signal;HPM_P1;HPM_P2
2022/03/31 00:00:07;;;;;;;59.03;39.22;;;10.10;99.90;;;;;;4974901;28;20042;-61
2022/03/31 00:02:33;;;;;;;60.15;38.15;;;10.10;99.90;;;;;;4975015;28;20388;-61
2022/03/31 00:04:59;;;;;;;63.53;39.97;;;10.10;99.90;;;;;;4975498;28;20093;-61
2022/03/31 00:07:25;;;;;;;60.10;39.28;;;10.10;99.90;;;;;;4975010;28;20027;-60
2022/03/31 00:09:50;;;;;;;64.03;38.90;;;10.10;99.90;;;;;;4975403;28;20077;-61
2022/03/31 00:12:16;;;;;;;66.25;39.75;;;10.00;99.90;;;;;;4974551;28;20097;-61
2022/03/31 00:14:42;;;;;;;66.55;42.47;;;10.00;99.90;;;;;;4974616;28;20110;-61
2022/03/31 00:17:07;;;;;;;63.78;39.95;;;9.90;99.90;;;;;;4974830;28;20035;-61
2022/03/31 00:19:33;;;;;;;64.38;40.40;;;9.80;99.90;;;;;;4973612;28;20027;-61
2022/03/31 00:21:59;;;;;;;61.53;39.22;;;9.80;99.90;;;;;;4975324;28;20031;-60
2022/03/31 00:24:25;;;;;;;65.07;40.97;;;9.70;99.90;;;;;;4974701;28;20476;-60
2022/03/31 00:26:50;;;;;;;71.18;41.38;;;9.60;99.90;;;;;;4974980;28;20031;-61
2022/03/31 00:29:16;;;;;;;68.03;42.13;;;9.60;99.90;;;;;;4974224;28;20388;-60
2022/03/31 00:31:42;;;;;;;67.63;42.47;;;9.60;99.90;;;;;;4974642;28;20566;-61
2022/03/31 00:34:08;;;;;;;68.53;42.20;;;9.50;99.90;;;;;;4974954;28;20174;-61
2022/03/31 00:36:34;;;;;;;71.72;44.20;;;9.40;99.90;;;;;;4974731;28;20050;-60
2022/03/31 00:41:44;;;;;;;69.55;42.97;;;9.20;99.90;;;;;;4974221;28;20045;-61
2022/03/31 00:44:09;;;;;;;72.30;42.40;;;9.10;99.90;;;;;;4974050;28;20395;-60
2022/03/31 00:46:45;;;;;;;70.32;44.03;;;8.90;99.90;;;;;;4974353;28;20431;-61
2022/03/31 00:49:11;;;;;;;74.95;45.53;;;9.00;99.90;;;;;;4971036;28;20031;-61
2022/03/31 00:51:36;;;;;;;77.18;46.38;;;8.90;99.90;;;;;;4975062;28;20023;-61
2022/03/31 00:54:02;;;;;;;73.88;45.55;;;9.00;99.90;;;;;;4973946;28;20491;-60
2022/03/31 00:56:29;;;;;;;72.32;45.05;;;8.90;99.90;;;;;;4973979;28;20039;-60
2022/03/31 00:58:55;;;;;;;74.15;42.90;;;9.00;99.90;;;;;;4973841;28;20488;-61
2022/03/31 01:01:21;;;;;;;68.25;43.72;;;9.00;99.90;;;;;;4974553;28;20121;-61
2022/03/31 01:03:47;;;;;;;69.53;42.97;;;8.90;99.90;;;;;;4974364;28;20037;-61
2022/03/31 01:06:12;;;;;;;75.93;44.42;;;8.90;99.90;;;;;;4973662;28;20038;-61
2022/03/31 01:08:38;;;;;;;65.45;40.83;;;8.80;99.90;;;;;;4972401;28;20023;-61
2022/03/31 01:11:04;;;;;;;67.95;41.70;;;8.90;99.90;;;;;;4973693;28;20491;-61
2022/03/31 01:13:30;;;;;;;66.43;41.97;;;8.90;99.90;;;;;;4974171;28;20109;-60
2022/03/31 01:15:55;;;;;;;65.22;41.67;;;8.90;99.90;;;;;;4974245;28;20507;-61
2022/03/31 01:18:21;;;;;;;71.03;43.53;;;8.90;99.90;;;;;;4973556;28;20023;-60
2022/03/31 01:20:47;;;;;;;63.80;42.75;;;9.00;99.90;;;;;;4974012;28;20037;-61
2022/03/31 01:23:14;;;;;;;66.65;42.85;;;9.00;99.90;;;;;;4973420;28;20045;-61
2022/03/31 01:25:40;;;;;;;68.30;43.50;;;9.10;99.90;;;;;;4972414;28;20038;-61
2022/03/31 01:28:06;;;;;;;68.32;41.10;;;9.10;99.90;;;;;;4970075;28;20035;-61
2022/03/31 01:30:32;;;;;;;69.00;41.33;;;9.10;99.90;;;;;;4973883;28;20097;-60
2022/03/31 01:32:57;;;;;;;65.97;41.67;;;9.10;99.90;;;;;;4973332;28;20023;-60
2022/03/31 01:35:23;;;;;;;68.75;40.60;;;9.10;99.90;;;;;;4973130;28;20567;-60
2022/03/31 01:37:49;;;;;;;62.45;40.20;;;9.20;99.90;;;;;;4973233;28;20038;-60
2022/03/31 01:40:15;;;;;;;67.28;41.20;;;9.10;99.90;;;;;;4973580;28;20357;-60
2022/03/31 01:42:42;;;;;;;64.25;39.85;;;9.20;99.90;;;;;;4972618;28;20058;-61
2022/03/31 01:45:14;;;;;;;65.72;42.13;;;9.30;99.90;;;;;;4973131;28;20030;-60
2022/03/31 01:47:40;;;;;;;65.35;39.92;;;9.30;99.90;;;;;;4971754;28;20038;-61
2022/03/31 01:50:10;;;;;;;74.80;43.30;;;9.40;99.90;;;;;;4973123;28;20106;-61
2022/03/31 01:52:39;;;;;;;70.22;41.95;;;9.40;99.90;;;;;;4973263;28;20085;-61
2022/03/31 01:55:06;;;;;;;68.53;40.97;;;9.40;99.90;;;;;;4969141;28;20077;-60
2022/03/31 01:57:32;;;;;;;70.47;42.58;;;9.40;99.90;;;;;;4972726;28;20470;-61
2022/03/31 02:00:02;;;;;;;71.15;42.92;;;9.30;99.90;;;;;;4971632;28;20118;-61
2022/03/31 02:02:30;;;;;;;65.18;41.03;;;9.30;99.90;;;;;;4973129;28;20118;-60
2022/03/31 02:04:56;;;;;;;68.40;41.97;;;9.40;99.90;;;;;;4972912;28;20499;-60
2022/03/31 02:07:22;;;;;;;55.08;38.13;;;9.40;99.90;;;;;;4972987;28;20054;-60
2022/03/31 02:09:48;;;;;;;69.90;42.85;;;9.40;99.90;;;;;;4972926;28;20121;-60
2022/03/31 02:12:14;;;;;;;65.97;42.17;;;9.40;99.90;;;;;;4972754;28;20484;-61
2022/03/31 02:14:41;;;;;;;63.65;42.13;;;9.30;99.90;;;;;;4972698;28;20038;-61
2022/03/31 02:17:08;;;;;;;63.38;41.20;;;9.30;99.90;;;;;;4972543;28;20084;-61
2022/03/31 02:19:34;;;;;;;60.30;39.75;;;9.40;99.90;;;;;;4973097;28;20019;-60
2022/03/31 02:22:01;;;;;;;59.60;39.15;;;9.50;99.90;;;;;;4973095;28;20035;-60
2022/03/31 02:24:27;;;;;;;67.97;41.88;;;9.40;99.90;;;;;;4972279;28;20487;-61
2022/03/31 02:26:52;;;;;;;71.25;43.53;;;9.50;99.90;;;;;;4972926;28;20035;-60
2022/03/31 02:29:19;;;;;;;65.97;41.47;;;9.40;99.90;;;;;;4972759;28;20023;-60
2022/03/31 02:31:48;;;;;;;74.05;44.88;;;9.20;99.90;;;;;;4972714;28;20035;-61
2022/03/31 02:34:17;;;;;;;74.28;43.90;;;9.10;99.90;;;;;;4972532;28;20399;-61
2022/03/31 02:36:44;;;;;;;66.30;42.45;;;9.20;99.90;;;;;;4971618;28;20510;-61
2022/03/31 02:39:10;;;;;;;59.42;38.13;;;9.50;99.90;;;;;;4970721;28;20403;-61
2022/03/31 02:41:36;;;;;;;55.83;37.65;;;9.50;99.90;;;;;;4972830;28;20019;-61
2022/03/31 02:44:04;;;;;;;51.05;34.00;;;9.50;99.90;;;;;;4972446;28;20505;-60
2022/03/31 02:46:29;;;;;;;45.60;32.80;;;9.40;99.90;;;;;;4972667;28;20039;-61
2022/03/31 02:48:56;;;;;;;50.22;32.42;;;9.50;99.90;;;;;;4973108;28;20528;-61
2022/03/31 02:51:22;;;;;;;50.85;33.47;;;9.50;99.90;;;;;;4972075;28;20019;-60
2022/03/31 02:56:33;;;;;;;53.55;35.13;;;9.70;99.90;;;;;;4972495;28;20057;-60
2022/03/31 02:58:58;;;;;;;52.85;35.08;;;9.50;99.90;;;;;;4972412;28;20392;-61
2022/03/31 03:01:27;;;;;;;48.92;33.70;;;9.40;99.90;;;;;;4972157;28;20101;-61
2022/03/31 03:03:54;;;;;;;50.42;33.63;;;9.40;99.90;;;;;;4973057;28;20081;-61
2022/03/31 03:06:19;;;;;;;48.25;32.38;;;9.40;99.90;;;;;;4972039;28;20483;-61
2022/03/31 03:08:46;;;;;;;43.78;31.13;;;9.40;99.90;;;;;;4971887;28;20162;-61
2022/03/31 03:11:12;;;;;;;47.38;32.72;;;9.50;99.90;;;;;;4972489;28;20388;-61
2022/03/31 03:13:38;;;;;;;46.42;32.45;;;9.50;99.90;;;;;;4956866;28;20030;-61
2022/03/31 03:16:08;;;;;;;53.28;35.72;;;9.60;99.90;;;;;;4971402;28;20031;-61
2022/03/31 03:18:42;;;;;;;51.58;36.08;;;9.50;99.90;;;;;;4972050;28;20031;-61
2022/03/31 03:21:09;;;;;;;50.72;35.50;;;9.40;99.90;;;;;;4971955;28;20106;-61
2022/03/31 03:23:36;;;;;;;49.95;35.95;;;9.30;99.90;;;;;;4971637;28;20448;-60
2022/03/31 03:26:03;;;;;;;53.58;36.65;;;9.30;99.90;;;;;;4971806;28;20037;-61
2022/03/31 03:28:29;;;;;;;49.15;34.63;;;9.30;99.90;;;;;;4971937;28;20388;-61
2022/03/31 03:30:55;;;;;;;53.80;36.67;;;9.30;99.90;;;;;;4972263;28;20035;-61
2022/03/31 03:33:21;;;;;;;45.58;33.13;;;9.40;99.90;;;;;;4971534;28;20026;-61
2022/03/31 03:35:47;;;;;;;47.00;33.35;;;9.50;99.90;;;;;;4972193;28;20053;-61
2022/03/31 03:38:14;;;;;;;50.92;34.90;;;9.40;99.90;;;;;;4971789;28;20054;-61
2022/03/31 03:40:40;;;;;;;57.60;38.35;;;9.40;99.90;;;;;;4972045;28;20476;-61
2022/03/31 03:43:06;;;;;;;55.35;37.15;;;9.10;99.90;;;;;;4968382;28;20023;-61
2022/03/31 03:45:32;;;;;;;55.53;37.60;;;9.10;99.90;;;;;;4971641;28;20061;-61
2022/03/31 03:47:59;;;;;;;47.80;33.53;;;9.10;99.90;;;;;;4972557;28;20035;-60
2022/03/31 03:50:25;;;;;;;48.92;34.33;;;9.20;99.90;;;;;;4975682;28;20403;-61
2022/03/31 03:52:52;;;;;;;54.53;35.45;;;9.30;99.90;;;;;;4975152;28;20038;-61
2022/03/31 03:55:18;;;;;;;45.20;32.58;;;9.20;99.90;;;;;;4974921;28;20395;-61
2022/03/31 03:57:44;;;;;;;49.30;34.55;;;9.20;99.90;;;;;;4975336;28;20494;-61
2022/03/31 04:00:11;;;;;;;36.50;25.85;;;9.10;99.90;;;;;;4974530;28;20035;-61
2022/03/31 04:02:38;;;;;;;32.47;22.63;;;9.10;99.90;;;;;;4975312;28;20035;-61
2022/03/31 04:05:05;;;;;;;25.77;17.95;;;9.20;99.90;;;;;;4974725;28;20474;-61
2022/03/31 04:07:30;;;;;;;24.23;16.98;;;9.10;99.90;;;;;;4974987;28;20052;-60
2022/03/31 04:09:56;;;;;;;23.48;18.08;;;9.10;99.90;;;;;;4975949;28;20058;-60
2022/03/31 04:12:22;;;;;;;27.35;19.10;;;9.00;99.90;;;;;;4974935;28;20034;-61
2022/03/31 04:14:49;;;;;;;24.98;18.25;;;9.00;99.90;;;;;;4974999;28;20534;-61
2022/03/31 04:17:16;;;;;;;24.58;18.52;;;8.90;99.90;;;;;;4973342;28;20468;-61
2022/03/31 04:19:43;;;;;;;25.00;19.40;;;8.90;99.90;;;;;;4974899;28;20460;-61
2022/03/31 04:22:09;;;;;;;27.48;19.42;;;8.90;99.90;;;;;;4975318;28;20088;-61
2022/03/31 04:24:35;;;;;;;29.13;20.63;;;8.80;99.90;;;;;;4974723;28;20510;-60
2022/03/31 04:27:01;;;;;;;35.22;22.67;;;8.80;99.90;;;;;;4974770;28;20027;-60
2022/03/31 04:29:27;;;;;;;33.83;22.10;;;8.80;99.90;;;;;;4969262;28;20115;-60
2022/03/31 04:31:53;;;;;;;30.15;21.00;;;8.80;99.90;;;;;;4971770;28;20034;-60
2022/03/31 04:34:20;;;;;;;32.15;22.40;;;8.80;99.90;;;;;;4974344;28;20057;-61
2022/03/31 04:36:46;;;;;;;31.55;22.60;;;8.80;99.90;;;;;;4974042;28;20654;-60
2022/03/31 04:39:14;;;;;;;39.72;24.73;;;8.80;99.90;;;;;;4973919;28;20026;-61
2022/03/31 04:41:40;;;;;;;36.42;23.80;;;8.70;99.90;;;;;;4974316;28;20032;-61
2022/03/31 04:44:06;;;;;;;37.25;22.13;;;8.70;99.90;;;;;;4974388;28;20472;-61
2022/03/31 04:46:33;;;;;;;38.15;24.10;;;8.80;99.90;;;;;;4974278;28;20092;-61
2022/03/31 04:49:02;;;;;;;34.25;23.25;;;8.90;99.90;;;;;;4974472;28;20514;-61
2022/03/31 04:51:29;;;;;;;33.55;25.20;;;8.90;99.90;;;;;;4974344;28;20113;-61
2022/03/31 04:53:54;;;;;;;30.42;22.02;;;8.90;99.90;;;;;;4973647;28;20030;-61
2022/03/31 04:56:20;;;;;;;38.63;27.80;;;8.80;99.90;;;;;;4974323;28;20472;-61
2022/03/31 04:58:46;;;;;;;38.72;26.40;;;8.80;99.90;;;;;;4974174;28;20019;-62
2022/03/31 05:01:12;;;;;;;42.53;28.02;;;8.70;99.90;;;;;;4974226;28;20376;-62
2022/03/31 05:03:39;;;;;;;40.70;28.02;;;8.80;99.90;;;;;;4974051;28;20589;-61
2022/03/31 05:06:06;;;;;;;36.55;26.90;;;8.80;99.90;;;;;;4974174;28;20416;-63
2022/03/31 05:08:32;;;;;;;41.53;29.45;;;8.90;99.90;;;;;;4973757;28;20113;-61
2022/03/31 05:10:58;;;;;;;46.03;29.80;;;8.90;99.90;;;;;;4974018;28;20407;-61
2022/03/31 05:13:24;;;;;;;39.10;28.50;;;8.80;99.90;;;;;;4973888;28;20034;-61
2022/03/31 05:15:51;;;;;;;36.03;26.58;;;8.80;99.90;;;;;;4974373;28;20046;-61
2022/03/31 05:18:17;;;;;;;42.03;29.42;;;8.90;99.90;;;;;;4973508;28;20542;-61
2022/03/31 05:20:43;;;;;;;40.88;29.15;;;8.80;99.90;;;;;;4973344;28;20034;-61
2022/03/31 05:23:12;;;;;;;47.05;31.05;;;8.80;99.90;;;;;;4973956;28;20015;-61
2022/03/31 05:25:38;;;;;;;45.78;31.73;;;8.80;99.90;;;;;;4957149;28;20045;-61
2022/03/31 05:28:05;;;;;;;52.88;35.22;;;8.80;99.90;;;;;;4970202;28;20102;-61
2022/03/31 05:30:31;;;;;;;66.22;36.53;;;8.80;99.90;;;;;;4973255;28;20038;-61
2022/03/31 05:32:58;;;;;;;61.92;37.22;;;8.70;99.90;;;;;;4973046;28;20027;-61
2022/03/31 05:35:24;;;;;;;51.50;33.88;;;8.60;99.90;;;;;;4973123;28;20054;-61
2022/03/31 05:37:50;;;;;;;52.97;34.47;;;8.60;99.90;;;;;;4973716;28;20037;-60
2022/03/31 05:40:16;;;;;;;51.33;33.83;;;8.60;99.90;;;;;;4973595;28;20107;-61
2022/03/31 05:42:43;;;;;;;51.13;34.20;;;8.50;99.90;;;;;;4973669;28;20117;-61
2022/03/31 05:45:10;;;;;;;49.70;32.47;;;8.40;99.90;;;;;;4971852;28;20031;-61
2022/03/31 05:47:37;;;;;;;65.80;38.00;;;8.40;99.90;;;;;;4973004;28;20043;-61
2022/03/31 05:50:04;;;;;;;67.30;37.72;;;8.30;99.90;;;;;;4973317;28;20031;-61
2022/03/31 05:52:30;;;;;;;49.03;32.67;;;8.20;99.90;;;;;;4973512;28;20088;-61
2022/03/31 05:54:55;;;;;;;58.47;36.45;;;8.30;99.90;;;;;;4973670;28;20114;-61
2022/03/31 05:57:21;;;;;;;56.28;35.72;;;8.40;99.90;;;;;;4972861;28;20050;-61
2022/03/31 05:59:47;;;;;;;56.67;37.03;;;8.30;99.90;;;;;;4972944;28;20033;-61
2022/03/31 06:02:13;;;;;;;59.80;37.25;;;8.40;99.90;;;;;;4972684;28;20046;-61
2022/03/31 06:04:39;;;;;;;56.97;35.92;;;8.30;99.90;;;;;;4973516;28;20385;-61
2022/03/31 06:07:06;;;;;;;56.60;36.72;;;8.30;99.90;;;;;;4968857;28;20448;-61
2022/03/31 06:09:32;;;;;;;57.15;35.35;;;8.30;99.90;;;;;;4972947;28;20034;-63
2022/03/31 06:11:58;;;;;;;56.83;35.63;;;8.30;99.90;;;;;;4972661;28;20027;-61
2022/03/31 06:14:24;;;;;;;59.78;37.28;;;8.40;99.90;;;;;;4972648;28;20439;-61
2022/03/31 06:16:51;;;;;;;63.10;37.33;;;8.50;99.90;;;;;;4972150;28;20050;-61
2022/03/31 06:19:17;;;;;;;48.83;33.53;;;8.70;99.90;;;;;;4972823;28;20023;-61
2022/03/31 06:21:44;;;;;;;47.20;32.72;;;9.10;99.90;;;;;;4973371;28;20106;-61
2022/03/31 06:24:10;;;;;;;48.65;33.65;;;9.10;99.90;;;;;;4972583;28;20043;-61
2022/03/31 06:26:36;;;;;;;50.50;32.03;;;9.30;99.90;;;;;;4972560;28;20035;-61
2022/03/31 06:29:04;;;;;;;46.38;32.70;;;9.10;99.90;;;;;;4972988;28;20023;-61
2022/03/31 06:31:30;;;;;;;45.90;33.13;;;9.00;99.90;;;;;;4972435;28;20043;-60
2022/03/31 06:33:56;;;;;;;52.70;34.30;;;8.90;99.90;;;;;;4972854;28;20043;-61
2022/03/31 06:36:21;;;;;;;40.50;30.45;;;8.80;99.90;;;;;;4972300;28;20042;-61
2022/03/31 06:38:47;;;;;;;48.63;33.95;;;9.00;99.90;;;;;;4972950;28;20085;-61
2022/03/31 06:41:15;;;;;;;44.85;32.53;;;9.00;99.90;;;;;;4972283;28;20399;-61
2022/03/31 06:43:46;;;;;;;52.80;34.95;;;9.00;99.90;;;;;;4972373;28;20018;-61
2022/03/31 06:46:13;;;;;;;46.60;33.50;;;9.10;99.90;;;;;;4972298;28;20476;-61
2022/03/31 06:48:41;;;;;;;45.95;32.38;;;9.10;99.90;;;;;;4973048;28;20031;-62
2022/03/31 06:51:08;;;;;;;45.45;32.70;;;9.10;99.90;;;;;;4972299;28;20031;-61
2022/03/31 06:53:38;;;;;;;42.83;30.70;;;9.20;99.90;;;;;;4972253;28;20497;-61
2022/03/31 06:56:05;;;;;;;48.88;33.95;;;9.30;99.90;;;;;;4972229;28;20035;-61
2022/03/31 06:58:31;;;;;;;44.97;32.95;;;9.40;99.90;;;;;;4972556;28;20035;-61
2022/03/31 07:00:58;;;;;;;44.35;33.40;;;9.30;99.90;;;;;;4972872;28;20392;-61
2022/03/31 07:03:24;;;;;;;35.40;26.98;;;9.50;99.90;;;;;;4972289;28;20026;-61
2022/03/31 07:05:50;;;;;;;37.13;27.67;;;10.50;99.90;;;;;;4972472;28;20440;-61
2022/03/31 07:08:15;;;;;;;35.38;27.90;;;10.30;99.90;;;;;;4972394;28;20030;-60
2022/03/31 07:10:41;;;;;;;33.53;26.90;;;10.10;99.90;;;;;;4972382;28;20023;-60
2022/03/31 07:13:07;;;;;;;33.33;25.83;;;10.00;99.90;;;;;;4972714;28;20030;-61
2022/03/31 07:15:33;;;;;;;26.60;22.38;;;10.40;99.90;;;;;;4972088;28;20039;-61
2022/03/31 07:18:03;;;;;;;25.63;21.20;;;12.10;99.90;;;;;;4972036;28;20046;-60
2022/03/31 07:20:30;;;;;;;24.42;20.48;;;13.20;99.90;;;;;;4972055;28;20031;-61
2022/03/31 07:22:56;;;;;;;26.05;22.30;;;13.00;99.90;;;;;;4973003;28;20089;-60
2022/03/31 07:25:22;;;;;;;24.55;20.58;;;12.50;99.90;;;;;;4975769;28;20023;-61
2022/03/31 07:27:49;;;;;;;25.33;21.20;;;12.70;99.90;;;;;;4976243;28;20022;-61
2022/03/31 07:30:17;;;;;;;22.83;19.67;;;13.60;99.90;;;;;;4975280;28;20027;-61
2022/03/31 07:32:50;;;;;;;21.25;17.77;;;15.10;99.90;;;;;;4975848;28;20023;-61
2022/03/31 07:35:16;;;;;;;21.63;18.30;;;17.00;99.90;;;;;;4975806;28;20051;-60
2022/03/31 07:37:42;;;;;;;22.67;18.52;;;18.00;99.90;;;;;;4975492;28;20035;-61
2022/03/31 07:40:08;;;;;;;19.77;17.65;;;18.40;99.90;;;;;;4976000;28;20030;-61
2022/03/31 07:42:34;;;;;;;21.73;19.40;;;18.00;99.90;;;;;;4975628;28;20026;-61
2022/03/31 07:45:00;;;;;;;20.45;18.02;;;16.80;99.90;;;;;;4975580;28;20461;-61
2022/03/31 07:47:26;;;;;;;20.90;18.42;;;18.00;99.90;;;;;;4975227;28;20022;-61
2022/03/31 07:49:52;;;;;;;21.85;19.48;;;19.10;99.90;;;;;;4975482;28;20113;-60
2022/03/31 07:52:19;;;;;;;22.48;18.98;;;19.20;99.90;;;;;;4975237;28;20031;-61
2022/03/31 07:54:45;;;;;;;22.95;20.02;;;20.10;99.90;;;;;;4975526;28;20030;-61
2022/03/31 07:57:11;;;;;;;21.38;19.08;;;20.90;99.90;;;;;;4974751;28;20404;-61
2022/03/31 07:59:36;;;;;;;22.88;18.50;;;20.90;99.90;;;;;;4975572;28;20061;-61
2022/03/31 08:02:03;;;;;;;25.30;20.33;;;21.00;99.90;;;;;;4975252;28;20027;-61
2022/03/31 08:04:28;;;;;;;23.38;19.67;;;20.50;99.90;;;;;;4975143;28;20537;-61
2022/03/31 08:06:55;;;;;;;28.17;21.40;;;20.70;99.90;;;;;;4975568;28;20113;-61
2022/03/31 08:09:21;;;;;;;25.27;21.20;;;20.00;99.90;;;;;;4974958;28;20027;-61
2022/03/31 08:11:49;;;;;;;26.40;21.15;;;20.30;99.90;;;;;;4974752;28;20027;-62
2022/03/31 08:14:17;;;;;;;26.42;21.65;;;21.40;99.90;;;;;;4975298;28;20125;-61
2022/03/31 08:16:49;;;;;;;25.33;21.70;;;21.30;98.70;;;;;;4974834;28;20864;-61
2022/03/31 08:19:18;;;;;;;26.50;22.92;;;20.60;99.90;;;;;;4975024;28;20031;-61
2022/03/31 08:21:45;;;;;;;27.77;21.83;;;21.30;99.60;;;;;;4974600;28;20034;-61
2022/03/31 08:24:13;;;;;;;27.92;23.30;;;22.00;97.90;;;;;;4974605;28;20390;-61
2022/03/31 08:26:40;;;;;;;27.55;23.50;;;20.40;99.90;;;;;;4974405;28;20482;-61
2022/03/31 08:29:07;;;;;;;31.17;24.55;;;19.70;99.90;;;;;;4974707;28;20050;-61
2022/03/31 08:31:34;;;;;;;27.20;23.77;;;18.10;99.90;;;;;;4974734;28;20042;-61
2022/03/31 08:34:03;;;;;;;31.73;24.33;;;19.10;99.90;;;;;;4974614;28;20081;-62
2022/03/31 08:36:29;;;;;;;28.15;24.55;;;21.80;97.70;;;;;;4974638;28;20118;-61
2022/03/31 08:38:56;;;;;;;31.40;26.45;;;23.50;96.10;;;;;;4974368;28;20121;-62
2022/03/31 08:41:27;;;;;;;32.53;26.17;;;20.00;98.60;;;;;;4973978;28;20034;-61
2022/03/31 08:43:54;;;;;;;31.08;24.08;;;20.20;99.90;;;;;;4974454;28;20526;-61
2022/03/31 08:46:22;;;;;;;27.60;24.23;;;21.90;98.30;;;;;;4974589;28;20022;-62
2022/03/31 08:48:49;;;;;;;28.55;23.95;;;21.80;98.40;;;;;;4975045;28;20039;-62
2022/03/31 08:51:15;;;;;;;29.02;23.35;;;22.90;95.90;;;;;;4974247;28;20034;-62
2022/03/31 08:53:41;;;;;;;29.25;23.90;;;23.70;95.40;;;;;;4974060;28;20053;-61
2022/03/31 08:56:09;;;;;;;29.35;23.52;;;20.90;96.80;;;;;;4973815;28;20496;-61
2022/03/31 08:58:35;;;;;;;28.45;23.95;;;18.50;99.50;;;;;;4974274;28;20403;-61
2022/03/31 09:01:01;;;;;;;29.30;24.95;;;18.60;99.40;;;;;;4974674;28;20027;-61
2022/03/31 09:03:38;;;;;;;30.05;24.55;;;18.00;99.90;;;;;;4974368;28;20031;-62
2022/03/31 09:06:04;;;;;;;27.13;23.25;;;20.60;98.70;;;;;;4973813;28;20373;-61
2022/03/31 09:08:30;;;;;;;28.02;23.75;;;20.00;97.80;;;;;;4973879;28;20041;-61
2022/03/31 09:11:00;;;;;;;29.20;23.20;;;20.10;98.10;;;;;;4973844;28;20031;-61
2022/03/31 09:13:28;;;;;;;28.10;24.15;;;20.10;97.70;;;;;;4973705;28;20407;-61
2022/03/31 09:16:01;;;;;;;29.85;24.60;;;18.10;99.90;;;;;;4973087;28;20365;-61
2022/03/31 09:18:30;;;;;;;27.77;23.87;;;17.90;99.90;;;;;;4974094;28;20550;-61
2022/03/31 09:20:58;;;;;;;33.00;26.40;;;18.00;99.90;;;;;;4973688;28;20428;-61
2022/03/31 09:23:32;;;;;;;30.88;25.27;;;16.90;99.90;;;;;;4973463;28;20038;-61
2022/03/31 09:26:08;;;;;;;30.55;26.80;;;16.00;99.90;;;;;;4973689;28;20449;-61
2022/03/31 09:28:34;;;;;;;29.35;24.80;;;17.50;99.90;;;;;;4973305;28;20041;-61
2022/03/31 09:31:00;;;;;;;29.52;23.75;;;19.90;99.00;;;;;;4974106;28;20484;-61
2022/03/31 09:33:38;;;;;;;31.45;24.95;;;20.00;99.80;;;;;;4973314;28;20109;-61
2022/03/31 09:36:15;;;;;;;29.15;25.10;;;18.40;99.10;;;;;;4973271;28;20043;-61
2022/03/31 09:38:50;;;;;;;28.63;23.00;;;19.00;99.50;;;;;;4973415;28;20031;-61
2022/03/31 09:41:18;;;;;;;31.00;25.77;;;20.20;98.50;;;;;;4973582;28;20102;-61
2022/03/31 09:43:44;;;;;;;29.00;24.38;;;19.50;98.70;;;;;;4973378;28;20045;-61
2022/03/31 09:46:17;;;;;;;35.03;27.13;;;18.50;99.90;;;;;;4972981;28;20050;-61
2022/03/31 09:48:43;;;;;;;31.53;26.27;;;17.60;99.90;;;;;;4972669;28;20037;-61
2022/03/31 09:51:09;;;;;;;33.22;26.95;;;16.30;99.90;;;;;;4972908;28;20308;-61
2022/03/31 09:53:35;;;;;;;35.00;27.42;;;16.20;99.90;;;;;;4972972;28;20037;-61
2022/03/31 09:56:02;;;;;;;32.80;27.08;;;16.20;99.90;;;;;;4972961;28;20420;-61
2022/03/31 09:58:28;;;;;;;32.92;26.95;;;15.20;99.90;;;;;;4973307;28;20023;-61
2022/03/31 10:00:54;;;;;;;31.27;25.42;;;15.70;99.90;;;;;;4973644;28;20458;-61
2022/03/31 10:03:21;;;;;;;30.48;25.25;;;16.90;99.90;;;;;;4972872;28;20039;-61
2022/03/31 10:05:47;;;;;;;32.42;25.10;;;19.20;99.90;;;;;;4972590;28;20027;-61
2022/03/31 10:08:13;;;;;;;26.77;23.55;;;17.30;99.90;;;;;;4973082;28;20031;-61
2022/03/31 10:10:40;;;;;;;28.13;23.50;;;16.20;99.90;;;;;;4957525;28;20031;-61
2022/03/31 10:13:17;;;;;;;28.05;23.38;;;16.40;99.90;;;;;;4973225;28;20114;-61
2022/03/31 10:15:44;;;;;;;25.65;21.88;;;17.40;99.90;;;;;;4972063;28;20033;-63
2022/03/31 10:18:14;;;;;;;26.63;22.35;;;18.40;99.90;;;;;;4972451;28;20035;-61
2022/03/31 10:20:40;;;;;;;25.30;21.80;;;16.70;99.90;;;;;;4972336;28;20480;-61
2022/03/31 10:25:50;;;;;;;26.15;20.83;;;18.40;99.90;;;;;;4958515;28;20077;-61
2022/03/31 10:28:21;;;;;;;26.90;21.00;;;18.90;97.40;;;;;;4972868;28;20027;-61
2022/03/31 10:30:58;;;;;;;24.55;19.52;;;20.00;96.80;;;;;;4972529;28;20057;-61
2022/03/31 10:33:42;;;;;;;23.02;19.80;;;19.40;98.60;;;;;;4972341;28;20031;-61
2022/03/31 10:36:13;;;;;;;22.85;19.40;;;20.40;96.40;;;;;;4971767;28;20042;-62
2022/03/31 10:38:56;;;;;;;21.70;19.05;;;19.20;96.20;;;;;;4971973;28;20038;-64
2022/03/31 10:41:29;;;;;;;23.92;18.83;;;20.30;95.60;;;;;;4972314;28;20019;-61
2022/03/31 10:43:58;;;;;;;24.73;19.52;;;19.70;95.90;;;;;;4972136;28;20129;-61
2022/03/31 10:46:25;;;;;;;22.90;18.30;;;19.70;96.20;;;;;;4972466;28;20398;-61
2022/03/31 10:48:57;;;;;;;22.55;19.35;;;20.30;97.30;;;;;;4971023;28;20035;-60
2022/03/31 10:51:36;;;;;;;21.00;18.00;;;20.10;97.00;;;;;;4972017;28;20027;-60
2022/03/31 10:54:03;;;;;;;20.67;17.52;;;19.10;95.20;;;;;;4971606;28;20423;-61
2022/03/31 10:56:30;;;;;;;24.10;18.38;;;18.10;96.80;;;;;;4971919;28;20196;-62
2022/03/31 10:59:01;;;;;;;20.35;17.70;;;17.60;96.50;;;;;;4976048;28;20035;-61
2022/03/31 11:01:30;;;;;;;23.10;18.98;;;17.40;97.30;;;;;;4975758;28;20088;-61
2022/03/31 11:04:09;;;;;;;22.85;18.48;;;17.40;98.50;;;;;;4977076;28;20480;-61
2022/03/31 11:06:49;;;;;;;23.98;17.85;;;18.90;96.00;;;;;;4975346;28;20041;-61
2022/03/31 11:09:21;;;;;;;23.10;19.05;;;18.60;95.60;;;;;;4976010;28;20034;-60
2022/03/31 11:11:51;;;;;;;23.55;19.20;;;18.40;97.10;;;;;;4975962;28;20042;-60
2022/03/31 11:14:17;;;;;;;21.00;17.05;;;16.90;98.20;;;;;;4976112;28;20023;-60
2022/03/31 11:16:44;;;;;;;21.40;17.75;;;17.10;98.30;;;;;;4975326;28;20067;-60
2022/03/31 11:19:10;;;;;;;22.85;18.00;;;17.30;97.40;;;;;;4976282;28;20117;-61
2022/03/31 11:21:37;;;;;;;23.27;17.35;;;17.80;97.40;;;;;;4975468;28;20027;-61
2022/03/31 11:24:07;;;;;;;19.92;16.30;;;16.60;97.30;;;;;;4975779;28;20037;-60
2022/03/31 11:26:44;;;;;;;20.90;16.38;;;18.10;96.60;;;;;;4975749;28;20023;-61
2022/03/31 11:29:13;;;;;;;17.80;15.68;;;18.40;95.80;;;;;;4975901;28;20030;-61
2022/03/31 11:31:49;;;;;;;24.42;17.00;;;19.00;95.20;;;;;;4960423;28;20031;-62
2022/03/31 11:34:22;;;;;;;20.67;17.20;;;18.60;95.60;;;;;;4972901;28;20051;-60
2022/03/31 11:36:52;;;;;;;19.38;17.27;;;18.80;94.60;;;;;;4975216;28;20049;-61
2022/03/31 11:39:19;;;;;;;20.00;16.65;;;18.30;95.80;;;;;;4975016;28;20027;-61
2022/03/31 11:41:45;;;;;;;20.75;17.75;;;18.90;96.10;;;;;;4975280;28;20484;-62
2022/03/31 11:44:11;;;;;;;21.98;16.48;;;17.50;96.20;;;;;;4975677;28;20458;-61
2022/03/31 11:46:47;;;;;;;21.75;16.27;;;18.10;96.10;;;;;;4975135;28;20034;-61
2022/03/31 11:49:25;;;;;;;19.80;15.13;;;18.60;95.60;;;;;;4972065;28;20077;-62
2022/03/31 11:52:01;;;;;;;19.80;15.80;;;19.10;96.00;;;;;;4973817;28;20395;-61
2022/03/31 11:54:28;;;;;;;22.48;16.83;;;19.10;95.40;;;;;;4975132;28;20031;-62
2022/03/31 11:57:08;;;;;;;18.58;15.68;;;17.50;96.10;;;;;;4975120;28;20522;-62
2022/03/31 11:59:35;;;;;;;20.63;14.77;;;17.20;94.90;;;;;;4975205;28;20090;-62
2022/03/31 12:02:02;;;;;;;19.83;15.50;;;17.10;94.80;;;;;;4975322;28;20037;-61
2022/03/31 12:04:30;;;;;;;17.02;14.57;;;17.90;94.80;;;;;;4974870;28;20023;-61
2022/03/31 12:06:59;;;;;;;19.60;14.27;;;18.80;94.30;;;;;;4975523;28;20491;-61
2022/03/31 12:09:28;;;;;;;18.20;14.75;;;18.60;96.00;;;;;;4974491;28;20194;-61
2022/03/31 12:11:55;;;;;;;22.10;15.45;;;19.10;95.20;;;;;;4975262;28;20512;-61
2022/03/31 12:14:22;;;;;;;21.45;15.85;;;17.80;95.40;;;;;;4974825;28;20022;-61
2022/03/31 12:16:53;;;;;;;23.98;16.38;;;17.90;96.10;;;;;;4974792;28;20027;-61
2022/03/31 12:19:20;;;;;;;21.55;15.98;;;18.60;96.90;;;;;;4974950;28;20023;-61
2022/03/31 12:21:50;;;;;;;19.10;16.15;;;18.60;96.20;;;;;;4975231;28;20027;-62
2022/03/31 12:24:17;;;;;;;21.40;16.98;;;18.50;95.20;;;;;;4974595;28;20476;-62
2022/03/31 12:27:00;;;;;;;22.33;16.48;;;17.60;95.40;;;;;;4974596;28;20035;-64
2022/03/31 12:29:28;;;;;;;17.63;15.73;;;17.30;95.80;;;;;;4974482;28;20026;-63
2022/03/31 12:32:07;;;;;;;18.40;15.70;;;17.50;96.60;;;;;;4974911;28;20795;-61
2022/03/31 12:34:36;;;;;;;21.20;16.08;;;18.00;96.00;;;;;;4974254;28;20039;-61
2022/03/31 12:37:03;;;;;;;19.02;14.85;;;17.00;96.30;;;;;;4975043;28;20043;-61
2022/03/31 12:39:29;;;;;;;18.45;15.93;;;17.10;95.80;;;;;;4974378;28;20038;-62
2022/03/31 12:41:57;;;;;;;20.52;17.05;;;15.40;97.50;;;;;;4974659;28;20034;-61